Headquarters, Valles Caldera, New Mexico Weather observations

Data are for 10 minute period ending at time listed.
 Day   Time   Solar   Ave.   Ave.  Ave.  Vector  Max.   Baro.   Total    
  of    of     Rad.   Air    Rel.  Wind   Wind   Wind  Press.  Precip.   
Year   Day            Temp.  Hum.  Speed  Dir.   Gust                    
2016   (MST)  Kw/m2    F      %     mph   deg.    mph    mb.     in.     
-------------------------------------------------------------------------
 205   15:20   0.11   76.9    28    2.5   346     4.8   744.4    0.00 
 205   15:30   0.14   75.4    35    3.3   346     5.4   744.4    0.00 
 205   15:40   0.14   74.1    41    3.8   342     6.6   744.3    0.00 
 205   15:50   0.14   71.7    55    3.5   282     4.8   744.3    0.00 
 205   16:00   0.20   71.9    52    3.5   280     4.8   744.2    0.00 
 205   16:10   0.13   73.9    48    3.0   251     4.2   744.2    0.00 
 205   16:20   0.14   73.8    50    4.2   228     5.4   744.2    0.00 
 205   16:30   0.22   74.7    47    4.6   211     6.0   744.0    0.00 
 205   16:40   0.20   73.9    47    4.8   232     6.6   744.0    0.00 
 205   16:50   0.11   75.4    34    4.6   206     6.6   743.9    0.00 
 205   17:00   0.12   75.8    33    2.7   280     4.2   743.9    0.00 
 205   17:10   0.11   76.8    26    3.0   327     7.2   743.8    0.00 
 205   17:20   0.20   77.2    26    3.0    13     6.0   743.8    0.00 
 205   17:30   0.33   79.5    23    5.2    43    10.2   743.7    0.00 
 205   17:40   0.32   78.6    28    5.4    47     8.4   743.7    0.02 
 205   17:50   0.30   75.0    41    4.3    84     6.6   743.8    0.00 
 205   18:00   0.26   75.0    33    4.5    55     9.6   743.8    0.00 
 205   18:10   0.19   77.2    24    7.5   346    14.3   743.9    0.00 
 205   18:20   0.12   76.9    24    4.8   348    11.9   744.0    0.00 
 205   18:30   0.10   76.0    25    5.0    10    11.3   744.1    0.00 
 205   18:40   0.07   75.1    26    3.7   358     6.6   744.2    0.00 
 205   18:50   0.05   74.4    30    3.5   230     5.4   744.2    0.00 
 205   19:00   0.02   71.9    32    3.3   164     5.4   744.2    0.00 
 205   19:10   0.01   70.8    33    2.0   272     4.2   744.3    0.00 
 205   19:20   0.00   70.1    35    2.9   296     4.2   744.3    0.00 
 205   19:30   0.00   67.9    43    2.5   263     4.8   744.4    0.00 
 205   19:40   0.00   66.3    48    3.8   267     6.6   744.6    0.00 
 205   19:50   0.00   65.4    48    4.1   268     6.0   744.7    0.00 
 205   20:00   0.00   65.2    49    4.1   279     5.4   744.8    0.00 
 205   20:10   0.00   63.4    51    3.8   259     5.4   744.9    0.00 
 205   20:20   0.00   63.2    49    4.3   280     6.6   744.9    0.00 
 205   20:30   0.00   61.9    53    3.2   263     4.8   745.1    0.00 
 205   20:40   0.00   61.7    53    2.6   270     4.8   745.3    0.00 
 205   20:50   0.00   61.7    52    3.4   344     4.8   745.7    0.00 
 205   21:00   0.00   62.1    51    4.0   298     8.4   745.8    0.00 
 205   21:10   0.00   63.6    48    5.4    44    11.3   745.9    0.00 
 205   21:20   0.00   63.9    49    3.4    75     7.2   746.0    0.00 
 205   21:30   0.00   62.9    52    4.9    60     7.8   746.2    0.00 
 205   21:40   0.00   62.9    53    4.9    13     8.4   746.2    0.00 
 205   21:50   0.00   63.9    50    3.8     6     7.8   746.3    0.00 
 205   22:00   0.00   63.0    54    2.3   241     4.2   746.3    0.00 
 205   22:10   0.00   61.3    62    3.9   228     6.0   746.4    0.00 
 205   22:20   0.00   60.4    60    2.3   235     5.4   746.2    0.00 
 205   22:30   0.00   60.6    60    3.8   280     6.6   746.3    0.00 
 205   22:40   0.00   60.2    61    5.2   246     6.0   746.5    0.00 
 205   22:50   0.00   60.1    63    7.2   222    12.5   746.9    0.00 
 205   23:00   0.00   61.7    61    8.8   244    14.3   747.1    0.02 
 205   23:10   0.00   57.7    81    5.0   276     9.6   747.3    0.02 
 205   23:20   0.00   56.8    79    6.0   234     9.6   747.1    0.00 
 205   23:30   0.00   57.3    76    7.7   218    11.9   746.9    0.00 
 205   23:40   0.00   57.6    74    6.9   242    10.2   746.8    0.00 
 205   23:50   0.00   58.7    70    5.8   254    12.5   746.7    0.00 
 206    0:00   0.00   58.2    74    3.4    38     7.2   746.8    0.00 
 206    0:10   0.00   57.0    79    2.1   333     5.4   746.6    0.00 
 206    0:20   0.00   56.5    80    2.4   206     4.8   746.5    0.00 
 206    0:30   0.00   55.4    84    3.8   254     6.0   746.4    0.00 
 206    0:40   0.00   55.0    86    3.7   246     4.8   746.3    0.00 
 206    0:50   0.00   55.0    86    2.9   266     4.8   746.2    0.00 
 206    1:00   0.00   55.3    85    3.8   289     5.4   746.2    0.00 
 206    1:10   0.00   54.8    86    3.4   230     4.8   746.2    0.00 
 206    1:20   0.00   54.3    87    3.1   272     4.8   746.2    0.00 
 206    1:30   0.00   54.7    86    2.4   311     4.2   746.3    0.00 
 206    1:40   0.00   54.4    86    4.2   239     6.0   746.1    0.00 
 206    1:50   0.00   54.1    86    3.7   264     6.0   746.0    0.00 
 206    2:00   0.00   54.4    86    2.4   296     3.6   745.9    0.00 
 206    2:10   0.00   54.3    86    1.9   254     3.6   745.9    0.00 
 206    2:20   0.00   54.3    85    3.4   304     4.8   745.9    0.00 
 206    2:30   0.00   54.3    84    3.1   240     4.2   745.8    0.00 
 206    2:40   0.00   53.7    85    3.7   255     4.8   745.7    0.00 
 206    2:50   0.00   54.1    85    3.2   321     4.2   745.7    0.00 
 206    3:00   0.00   54.1    84    2.6   265     4.2   745.7    0.00 
 206    3:10   0.00   53.8    85    3.6   242     5.4   745.7    0.00 
 206    3:20   0.00   53.7    84    3.4   243     4.2   745.7    0.00 
 206    3:30   0.00   54.3    82    3.4   278     4.2   745.7    0.00 
 206    3:40   0.00   54.7    80    3.1   291     4.2   745.7    0.00 
 206    3:50   0.00   54.6    82    1.5   203     3.0   745.8    0.00 
 206    4:00   0.00   54.3    82    6.1   255    11.9   745.7    0.00 
 206    4:10   0.00   55.2    79    3.3   235     7.2   745.6    0.00 
 206    4:20   0.00   54.5    81    2.3   279     3.6   745.6    0.00 
 206    4:30   0.00   54.1    83    2.8   334     4.2   745.5    0.00 
 206    4:40   0.00   53.8    84    4.4   267     5.4   745.5    0.00 
 206    4:50   0.00   53.6    84    2.8   241     4.2   745.5    0.00 
 206    5:00   0.00   53.5    84    4.2   241     6.0   745.5    0.00 
 206    5:10   0.00   54.0    82    4.4   290     5.4   745.5    0.00 
 206    5:20   0.00   53.8    82    4.0   246     6.0   745.5    0.00 
 206    5:30   0.01   53.9    80    3.7   280     4.8   745.5    0.00 
 206    5:40   0.01   54.0    80    3.1   303     6.0   745.5    0.00 
 206    5:50   0.01   53.3    84    2.5     4     4.2   745.7    0.00 
 206    6:00   0.02   53.7    82    1.9   245     3.6   745.8    0.00 
 206    6:10   0.06   54.2    81    3.1   247     5.4   746.0    0.00 
 206    6:20   0.07   55.3    78    4.6   232     6.6   746.0    0.00 
 206    6:30   0.17   58.4    72    2.4   158     4.2   746.1    0.00 
 206    6:40   0.21   59.7    72    2.8    55     4.8   746.3    0.00 
 206    6:50   0.26   61.3    68    1.4   144     3.0   746.5    0.00 
 206    7:00   0.17   62.9    63    1.4   171     3.6   746.6    0.00 
 206    7:10   0.13   63.3    64    0.9    22     2.4   746.7    0.00 
 206    7:20   0.39   63.9    64    2.7   102     4.8   746.8    0.00 
 206    7:30   0.36   65.0    64    3.2    34     4.8   746.8    0.00 
 206    7:40   0.30   66.2    63    3.3    62     6.0   746.8    0.00 
 206    7:50   0.15   64.6    64    3.0    24     4.2   747.0    0.00 
 206    8:00   0.24   65.1    64    2.1   144     4.2   747.1    0.00 
 206    8:10   0.34   68.1    56    3.5   220     5.4   747.1    0.00 
 206    8:20   0.49   73.4    40    2.1   191     4.8   747.1    0.00 
 206    8:30   0.54   73.6    36    4.3   123     7.8   747.0    0.00 
 206    8:40   0.58   75.0    32    5.7    82    12.5   746.9    0.00 
 206    8:50   0.43   74.5    32    6.1    47    10.8   746.9    0.00 
 206    9:00   0.47   75.0    31    4.9    43     9.6   746.9    0.00 
 206    9:10   0.40   74.5    34    6.1   113     9.6   747.0    0.00 
 206    9:20   0.54   73.9    35    5.5   134     7.8   747.1    0.00 
 206    9:30   0.78   76.4    31    7.0   105    12.5   747.0    0.00 
 206    9:40   0.78   77.3    30    6.8    70    11.3   746.9    0.00 
 206    9:50   0.40   76.2    30    5.5    58    10.2   747.0    0.00 
 206   10:00   0.37   75.2    30    5.3   332    10.8   747.0    0.00 
 206   10:10   0.19   74.3    30    4.2   349     7.8   747.0    0.00 
 206   10:20   0.12   72.9    31    4.5    10     7.8   747.1    0.00 
 206   10:30   0.07   69.0    52    4.0   252    10.8   747.4    0.12 
 206   10:40   0.05   61.1    78    4.5   229     6.6   747.4    0.01 
 206   10:50   0.06   59.1    84    3.5   244     6.0   747.3    0.00 
 206   11:00   0.07   58.4    86    4.8   248     7.2   747.5    0.00 
 206   11:10   0.08   59.2    84    3.2   213     5.4   747.4    0.00 
 206   11:20   0.10   59.4    83    4.3   279     6.0   747.3    0.00 
 206   11:30   0.09   59.5    82    4.2   206     5.4   747.1    0.00 
 206   11:40   0.08   58.6    85    4.0   218     5.4   747.3    0.00 
 206   11:50   0.07   59.2    82    4.4   278     6.0   747.3    0.00 
 206   12:00   0.09   60.2    80    3.0   238     4.2   747.3    0.00 
 206   12:10   0.15   61.4    76    2.4     6     6.0   747.2    0.00 
 206   12:20   0.21   60.9    73    3.2   104    11.9   747.3    0.00 
 206   12:30   0.19   65.4    47    7.5   331    14.9   747.2    0.00 
 206   12:40   0.17   65.8    44    7.1   339    13.1   747.2    0.00 
 206   12:50   0.14   66.2    44    7.5   300    14.3   747.1    0.00 
 206   13:00   0.12   63.6    58    7.1   301    11.3   747.2    0.01 
 206   13:10   0.10   62.4    59    7.1   292    16.1   747.1    0.00 
 206   13:20   0.09   62.9    58    4.9   252     9.0   746.9    0.00 
 206   13:30   0.10   63.2    54    9.9   248    23.9   746.9    0.01 
 206   13:40   0.12   65.2    46    9.8   196    28.0   746.7    0.00 
 206   13:50   0.14   65.6    58    3.7   276     7.8   747.0    0.00 
 206   14:00   0.44   65.2    57    6.2   114    12.5   746.7    0.00 
 206   14:10   0.91   70.6    44    5.4   325     7.8   746.4    0.00 
 206   14:20   0.85   73.1    36    5.1   338     9.6   746.3    0.00 
 206   14:30   0.83   76.3    31    2.2   307     5.4   746.1    0.00 
 206   14:40   0.82   78.4    28    4.5    42    11.9   746.0    0.00 
 206   14:50   0.87   78.3    28    4.1   101     9.0   745.9    0.00 
 206   15:00   0.88   79.8    26    5.6    56    11.3   745.6    0.00 
 206   15:10   0.68   79.4    25    7.6   352    13.1   745.5    0.00 

Return to Headquarters, Valles Caldera graphs page.


Western Regional Climate Center,wrcc@dri.edu